createdAt,value
2022-12-03T00:01:57.215Z,14.00
2022-12-03T00:04:24.344Z,9.33
2022-12-03T00:06:51.310Z,4.33
2022-12-03T00:09:18.188Z,7.00
2022-12-03T00:11:45.142Z,7.00
2022-12-03T00:14:12.174Z,4.00
2022-12-03T00:16:39.130Z,6.33
2022-12-03T00:19:07.891Z,8.00
2022-12-03T00:21:35.137Z,12.33
2022-12-03T00:24:02.128Z,9.00
2022-12-03T00:26:29.163Z,9.67
2022-12-03T00:28:56.479Z,9.67
2022-12-03T00:31:24.142Z,17.33
2022-12-03T00:33:51.998Z,15.00
2022-12-03T00:36:19.954Z,12.67
2022-12-03T00:38:46.896Z,18.00
2022-12-03T00:41:13.784Z,17.33
2022-12-03T00:43:40.811Z,11.33
2022-12-03T00:46:07.757Z,8.67
2022-12-03T00:48:34.768Z,15.00
2022-12-03T00:51:01.708Z,11.00
2022-12-03T00:53:28.855Z,13.00
2022-12-03T00:55:55.788Z,10.33
2022-12-03T00:58:22.715Z,13.33
2022-12-03T01:00:49.653Z,12.67
2022-12-03T01:03:16.616Z,15.67
2022-12-03T01:05:43.737Z,20.00
2022-12-03T01:08:10.783Z,11.33
2022-12-03T01:10:37.783Z,14.00
2022-12-03T01:13:04.707Z,11.67
2022-12-03T01:15:31.620Z,14.67
2022-12-03T01:17:58.573Z,17.33
2022-12-03T01:20:25.576Z,17.67
2022-12-03T01:22:52.542Z,11.67
2022-12-03T01:25:19.491Z,15.67
2022-12-03T01:27:46.407Z,11.33
2022-12-03T01:30:14.075Z,14.00
2022-12-03T01:32:40.979Z,18.67
2022-12-03T01:35:08.285Z,9.00
2022-12-03T01:37:35.255Z,12.00
2022-12-03T01:40:02.330Z,14.67
2022-12-03T01:42:37.303Z,11.33
2022-12-03T01:45:04.673Z,9.33
2022-12-03T01:47:35.549Z,9.33
2022-12-03T01:50:13.776Z,7.67
2022-12-03T01:52:41.248Z,8.00
2022-12-03T01:55:15.386Z,4.67
2022-12-03T01:57:54.444Z,3.33
2022-12-03T02:00:27.516Z,1.00
2022-12-03T02:02:57.562Z,1.33
2022-12-03T02:05:27.656Z,5.00
2022-12-03T02:08:11.107Z,7.33
2022-12-03T02:10:57.476Z,1.67
2022-12-03T02:13:41.343Z,8.33
2022-12-03T02:16:29.793Z,8.00
2022-12-03T02:19:19.278Z,13.67
2022-12-03T02:22:20.560Z,7.00
2022-12-03T02:25:09.049Z,4.33
2022-12-03T02:27:59.276Z,2.00
2022-12-03T02:30:27.934Z,1.67
2022-12-03T02:32:56.029Z,2.00
2022-12-03T02:35:28.774Z,5.00
2022-12-03T02:38:00.577Z,2.67
2022-12-03T02:40:31.562Z,5.00
2022-12-03T02:43:01.654Z,0.75
2022-12-03T02:45:31.125Z,4.00
2022-12-03T02:48:01.619Z,5.00
2022-12-03T02:50:38.211Z,6.00
2022-12-03T02:53:12.489Z,11.00
2022-12-03T02:55:40.417Z,15.00
2022-12-03T02:58:07.690Z,9.00
2022-12-03T03:00:36.447Z,8.00
2022-12-03T03:03:06.223Z,7.33
2022-12-03T03:05:36.036Z,5.67
2022-12-03T03:08:03.793Z,6.33
2022-12-03T03:10:33.432Z,3.33
2022-12-03T03:13:04.791Z,2.75
2022-12-03T03:15:31.780Z,6.50
2022-12-03T03:17:58.696Z,4.00
2022-12-03T03:20:25.900Z,2.00
2022-12-03T03:22:52.811Z,5.33
2022-12-03T03:25:24.948Z,2.00
2022-12-03T03:27:51.878Z,3.50
2022-12-03T03:30:18.932Z,4.67
2022-12-03T03:32:45.973Z,7.33
2022-12-03T03:35:14.551Z,9.00
2022-12-03T03:37:42.278Z,8.00
2022-12-03T03:40:09.754Z,4.00
2022-12-03T03:42:38.327Z,1.00
2022-12-03T03:45:07.357Z,0.75
2022-12-03T03:47:34.505Z,4.50
2022-12-03T03:50:02.013Z,4.50
2022-12-03T03:52:29.167Z,4.00
2022-12-03T03:54:56.376Z,10.33
2022-12-03T03:57:23.500Z,9.00
2022-12-03T03:59:50.464Z,6.67
2022-12-03T04:02:22.289Z,9.67
2022-12-03T04:04:50.183Z,4.33
2022-12-03T04:07:17.798Z,5.00
2022-12-03T04:09:45.010Z,8.00
2022-12-03T04:12:33.201Z,7.67
2022-12-03T04:15:00.331Z,8.67
2022-12-03T04:17:27.371Z,14.67
2022-12-03T04:22:41.618Z,8.00
2022-12-03T04:25:28.742Z,4.00
2022-12-03T04:28:14.076Z,2.00
2022-12-03T04:30:41.086Z,3.33
2022-12-03T04:33:26.439Z,4.33
2022-12-03T04:35:53.504Z,1.00
2022-12-03T04:38:20.525Z,5.00
2022-12-03T04:41:13.911Z,12.00
2022-12-03T04:44:00.812Z,9.00
2022-12-03T04:46:27.803Z,9.00
2022-12-03T04:48:54.687Z,13.33
2022-12-03T04:51:21.609Z,25.33
2022-12-03T04:53:48.476Z,17.67
2022-12-03T04:56:15.436Z,21.00
2022-12-03T04:58:42.374Z,23.33
2022-12-03T05:01:09.404Z,19.67
2022-12-03T05:03:36.408Z,29.33
2022-12-03T05:06:03.518Z,26.67
2022-12-03T05:08:30.563Z,16.00
2022-12-03T05:10:57.435Z,19.33
2022-12-03T05:13:24.347Z,15.00
2022-12-03T05:15:51.265Z,13.33
2022-12-03T05:18:18.264Z,16.67
2022-12-03T05:20:52.933Z,13.33
2022-12-03T05:23:20.397Z,12.00
2022-12-03T05:25:47.333Z,9.00
2022-12-03T05:28:14.411Z,7.00
2022-12-03T05:30:41.572Z,5.67
2022-12-03T05:33:08.603Z,9.00
2022-12-03T05:35:35.574Z,17.33
2022-12-03T05:38:02.517Z,11.33
2022-12-03T05:40:29.405Z,14.33
2022-12-03T05:43:01.362Z,9.00
2022-12-03T05:45:35.453Z,9.00
2022-12-03T05:48:03.997Z,4.33
2022-12-03T05:50:33.781Z,13.00
2022-12-03T05:53:01.086Z,19.33
2022-12-03T05:55:31.823Z,11.33
2022-12-03T05:57:58.866Z,8.00
2022-12-03T06:00:30.861Z,14.67
2022-12-03T06:02:58.105Z,9.67
2022-12-03T06:05:26.230Z,15.67
2022-12-03T06:07:53.490Z,21.00
2022-12-03T06:10:24.852Z,15.00
2022-12-03T06:12:52.212Z,18.33
2022-12-03T06:15:19.872Z,19.33
2022-12-03T06:17:46.879Z,18.67
2022-12-03T06:20:19.780Z,32.00
2022-12-03T06:22:47.657Z,23.67
2022-12-03T06:25:15.075Z,15.00
2022-12-03T06:27:42.175Z,19.33
2022-12-03T06:30:12.445Z,9.67
2022-12-03T06:32:39.379Z,13.67
2022-12-03T06:35:06.500Z,15.00
2022-12-03T06:37:33.405Z,18.00
2022-12-03T06:40:00.333Z,13.33
2022-12-03T06:42:27.231Z,19.33
2022-12-03T06:44:55.442Z,15.67
2022-12-03T06:47:22.622Z,12.00
2022-12-03T06:49:49.575Z,9.00
2022-12-03T06:52:16.913Z,7.00
2022-12-03T06:54:43.930Z,2.67
2022-12-03T06:57:10.897Z,2.00
2022-12-03T06:59:38.266Z,1.00
2022-12-03T07:02:05.775Z,0.00
2022-12-03T07:04:32.727Z,4.00
2022-12-03T07:06:59.736Z,3.33
2022-12-03T07:09:28.989Z,4.00
2022-12-03T07:11:56.024Z,2.00
2022-12-03T07:14:22.991Z,1.67
2022-12-03T07:16:49.968Z,0.00
2022-12-03T07:19:16.922Z,5.00
2022-12-03T07:21:45.474Z,19.33
2022-12-03T07:24:12.532Z,27.00
2022-12-03T07:26:39.509Z,18.33
2022-12-03T07:29:06.454Z,19.67
2022-12-03T07:31:33.483Z,25.00
2022-12-03T07:34:00.480Z,21.00
2022-12-03T07:36:27.389Z,33.33
2022-12-03T07:38:54.274Z,29.00
2022-12-03T07:41:21.241Z,24.33
2022-12-03T07:43:48.190Z,29.33
2022-12-03T07:46:15.152Z,27.33
2022-12-03T07:48:42.203Z,24.00
2022-12-03T07:51:14.299Z,22.00
2022-12-03T07:53:42.396Z,20.33
2022-12-03T07:56:24.513Z,16.67
2022-12-03T07:58:51.396Z,19.33
2022-12-03T08:01:18.387Z,21.33
2022-12-03T08:03:45.435Z,19.67
2022-12-03T08:06:12.355Z,20.67
2022-12-03T08:08:39.532Z,10.67
2022-12-03T08:11:06.696Z,12.00
2022-12-03T08:13:34.182Z,11.67
2022-12-03T08:16:09.280Z,1.00
2022-12-03T08:18:36.305Z,4.00
2022-12-03T08:21:05.336Z,8.67
2022-12-03T08:23:32.235Z,6.33
2022-12-03T08:26:02.380Z,4.67
2022-12-03T08:28:29.374Z,4.67
2022-12-03T08:31:18.781Z,5.00
2022-12-03T08:33:48.399Z,10.33
2022-12-03T08:36:24.336Z,6.33
2022-12-03T08:38:59.443Z,1.00
2022-12-03T08:41:45.498Z,5.00
2022-12-03T08:44:28.355Z,3.33
2022-12-03T08:47:13.997Z,5.00
2022-12-03T08:49:41.260Z,10.33
2022-12-03T08:52:19.013Z,15.67
2022-12-03T08:54:53.119Z,11.33
2022-12-03T08:57:33.243Z,14.33
2022-12-03T09:00:23.379Z,21.33
2022-12-03T09:02:53.490Z,12.33
2022-12-03T09:05:32.643Z,8.67
2022-12-03T09:07:59.658Z,14.33
2022-12-03T09:10:26.621Z,12.00
2022-12-03T09:12:53.502Z,9.67
2022-12-03T09:15:20.479Z,5.00
2022-12-03T09:17:47.475Z,18.33
2022-12-03T09:20:14.484Z,26.00
2022-12-03T09:22:41.420Z,22.33
2022-12-03T09:25:08.666Z,29.67
2022-12-03T09:27:35.771Z,26.33
2022-12-03T09:30:02.921Z,36.67
2022-12-03T09:32:30.100Z,35.33
2022-12-03T09:34:57.256Z,28.00
2022-12-03T09:37:30.537Z,27.67
2022-12-03T09:39:57.464Z,26.00
2022-12-03T09:42:25.660Z,12.33
2022-12-03T09:44:53.616Z,16.67
2022-12-03T09:47:21.284Z,25.00
2022-12-03T09:49:48.392Z,21.33
2022-12-03T09:52:24.897Z,21.00
2022-12-03T09:54:53.489Z,16.67
2022-12-03T09:57:21.040Z,7.33
2022-12-03T09:59:48.075Z,6.33
2022-12-03T10:02:31.618Z,3.33
2022-12-03T10:04:58.995Z,14.33
2022-12-03T10:07:26.508Z,18.33
2022-12-03T10:09:53.957Z,9.00
2022-12-03T10:12:25.052Z,5.75
2022-12-03T10:14:53.787Z,8.25
2022-12-03T10:17:21.139Z,5.00
2022-12-03T10:19:48.357Z,15.33
2022-12-03T10:22:15.438Z,19.00
2022-12-03T10:24:45.165Z,30.00
2022-12-03T10:27:29.582Z,25.33
2022-12-03T10:29:59.177Z,28.33
2022-12-03T10:32:38.685Z,16.67
2022-12-03T10:35:14.895Z,25.33
2022-12-03T10:37:56.931Z,28.33
2022-12-03T10:40:32.211Z,23.00
2022-12-03T10:43:20.589Z,13.67
2022-12-03T10:46:09.913Z,12.00
2022-12-03T10:48:36.962Z,18.33
2022-12-03T10:51:21.051Z,16.33
2022-12-03T10:53:49.673Z,22.33
2022-12-03T10:56:25.853Z,24.33
2022-12-03T10:58:53.459Z,24.67
2022-12-03T11:01:26.355Z,13.67
2022-12-03T11:03:56.839Z,16.00
2022-12-03T11:06:24.005Z,16.00
2022-12-03T11:09:00.332Z,6.50
2022-12-03T11:11:31.145Z,9.00
2022-12-03T11:14:03.615Z,7.00
2022-12-03T11:16:39.638Z,20.00
2022-12-03T11:19:12.645Z,16.67
2022-12-03T11:22:05.496Z,11.33
2022-12-03T11:24:40.875Z,11.33
2022-12-03T11:27:17.405Z,13.67
2022-12-03T11:30:01.907Z,33.67
2022-12-03T11:32:38.129Z,27.67
2022-12-03T11:35:13.305Z,20.67
2022-12-03T11:37:40.655Z,17.00
2022-12-03T11:40:27.634Z,28.67
2022-12-03T11:42:54.592Z,36.33
2022-12-03T11:45:33.630Z,25.00
2022-12-03T11:48:02.474Z,27.00
2022-12-03T11:50:39.726Z,23.00
2022-12-03T11:53:13.404Z,24.00
2022-12-03T11:56:08.649Z,16.00
2022-12-03T11:58:38.536Z,19.00
2022-12-03T12:01:08.271Z,25.67
2022-12-03T12:03:42.002Z,28.67
2022-12-03T12:06:22.920Z,31.00
2022-12-03T12:08:52.614Z,30.00
2022-12-03T12:11:28.482Z,26.67
2022-12-03T12:14:10.597Z,31.00
2022-12-03T12:16:52.767Z,36.33
2022-12-03T12:19:35.905Z,23.00
2022-12-03T12:22:27.408Z,44.67
2022-12-03T12:24:56.294Z,48.67
2022-12-03T12:27:24.887Z,54.00
2022-12-03T12:29:57.382Z,46.00
2022-12-03T12:32:44.117Z,35.33
2022-12-03T12:35:20.081Z,29.33
2022-12-03T12:38:00.067Z,22.67
2022-12-03T12:40:32.570Z,20.33
2022-12-03T12:43:04.324Z,22.33
2022-12-03T12:45:39.778Z,21.33
2022-12-03T12:48:15.768Z,35.33
2022-12-03T12:50:44.970Z,50.67
2022-12-03T12:53:26.840Z,32.67
2022-12-03T12:56:14.373Z,31.33
2022-12-03T12:58:42.504Z,29.67
2022-12-03T13:01:21.367Z,24.33
2022-12-03T13:03:52.229Z,17.33
2022-12-03T13:06:25.733Z,24.67
2022-12-03T13:08:53.966Z,19.00
2022-12-03T13:11:38.991Z,23.67
2022-12-03T13:14:31.654Z,39.00
2022-12-03T13:17:01.381Z,36.67
2022-12-03T13:19:30.465Z,34.33
2022-12-03T13:22:01.973Z,31.00
2022-12-03T13:24:47.977Z,36.00
2022-12-03T13:27:17.687Z,20.67
2022-12-03T13:29:45.724Z,29.33
2022-12-03T13:32:18.964Z,32.00
2022-12-03T13:34:46.939Z,28.33
2022-12-03T13:37:19.197Z,27.67
2022-12-03T13:39:51.729Z,20.00
2022-12-03T13:42:40.820Z,17.33
2022-12-03T13:45:16.864Z,17.33
2022-12-03T13:47:54.266Z,29.33
2022-12-03T13:50:42.236Z,43.33
2022-12-03T13:53:11.965Z,46.67
2022-12-03T13:55:43.702Z,34.67
2022-12-03T13:58:10.686Z,42.67
2022-12-03T14:00:37.886Z,43.67
2022-12-03T14:03:05.611Z,43.00
2022-12-03T14:05:32.585Z,48.33
2022-12-03T14:08:02.275Z,38.33
2022-12-03T14:10:30.138Z,23.33
2022-12-03T14:12:57.848Z,37.33
2022-12-03T14:15:27.352Z,40.67
2022-12-03T14:17:54.388Z,50.00
2022-12-03T14:20:22.405Z,47.33
2022-12-03T14:22:49.538Z,49.00
2022-12-03T14:25:16.602Z,38.67
2022-12-03T14:27:43.663Z,36.00
2022-12-03T14:30:11.174Z,37.67
2022-12-03T14:32:38.119Z,34.67
2022-12-03T14:35:09.923Z,37.67
2022-12-03T14:37:37.741Z,46.00
2022-12-03T14:40:07.299Z,43.33
2022-12-03T14:42:34.233Z,54.67
2022-12-03T14:45:01.301Z,42.00
2022-12-03T14:47:28.216Z,42.33
2022-12-03T14:49:55.376Z,41.33
2022-12-03T14:52:22.585Z,52.33
2022-12-03T14:54:49.705Z,39.67
2022-12-03T14:57:17.055Z,29.33
2022-12-03T14:59:45.066Z,35.00
2022-12-03T15:02:13.213Z,18.67
2022-12-03T15:04:41.329Z,18.67
2022-12-03T15:07:09.066Z,13.00
2022-12-03T15:09:36.043Z,25.33
2022-12-03T15:12:04.427Z,21.67
2022-12-03T15:14:31.353Z,12.33
2022-12-03T15:16:58.330Z,29.00
2022-12-03T15:19:25.335Z,34.00
2022-12-03T15:21:52.309Z,27.33
2022-12-03T15:24:19.591Z,32.67
2022-12-03T15:26:46.472Z,15.33
2022-12-03T15:29:13.439Z,13.00
2022-12-03T15:31:40.591Z,9.67
2022-12-03T15:34:07.615Z,20.00
2022-12-03T15:36:34.754Z,22.00
2022-12-03T15:39:01.734Z,30.33
2022-12-03T15:41:31.473Z,21.33
2022-12-03T15:44:02.263Z,16.67
2022-12-03T15:46:31.516Z,34.00
2022-12-03T15:48:58.948Z,28.00
2022-12-03T15:51:26.035Z,27.67
2022-12-03T15:53:52.917Z,39.00
2022-12-03T15:56:19.855Z,32.33
2022-12-03T15:58:46.802Z,19.67
2022-12-03T16:01:14.054Z,9.33
2022-12-03T16:03:41.889Z,11.33
2022-12-03T16:06:08.938Z,14.33
2022-12-03T16:08:36.004Z,12.33
2022-12-03T16:11:03.033Z,8.67
2022-12-03T16:13:29.967Z,8.67
2022-12-03T16:15:56.980Z,8.33
2022-12-03T16:18:23.945Z,19.00
2022-12-03T16:20:50.933Z,23.33
2022-12-03T16:23:17.878Z,30.33
2022-12-03T16:25:44.908Z,42.67
2022-12-03T16:28:11.974Z,29.33
2022-12-03T16:30:39.721Z,23.67
2022-12-03T16:33:06.664Z,27.00
2022-12-03T16:35:33.885Z,17.33
2022-12-03T16:38:01.036Z,41.33
2022-12-03T16:40:29.282Z,23.67
2022-12-03T16:42:56.180Z,36.33
2022-12-03T16:45:29.811Z,32.33
2022-12-03T16:47:56.746Z,40.00
2022-12-03T16:50:29.397Z,41.67
2022-12-03T16:52:57.989Z,27.33
2022-12-03T16:55:25.284Z,27.00
2022-12-03T16:57:52.258Z,39.33
2022-12-03T17:00:22.193Z,42.00
2022-12-03T17:02:49.255Z,34.33
2022-12-03T17:05:16.317Z,41.33
2022-12-03T17:07:43.473Z,38.00
2022-12-03T17:10:11.084Z,104.75
2022-12-03T17:13:07.783Z,75.00
2022-12-03T17:15:25.011Z,52.67
2022-12-03T17:17:51.931Z,49.67
2022-12-03T17:20:19.130Z,42.67
2022-12-03T17:22:46.621Z,46.33
2022-12-03T17:25:13.514Z,44.00
2022-12-03T17:27:45.197Z,55.67
2022-12-03T17:30:13.252Z,43.67
2022-12-03T17:32:40.296Z,40.00
2022-12-03T17:35:08.692Z,32.00
2022-12-03T17:37:36.505Z,29.67
2022-12-03T17:40:08.254Z,22.00
2022-12-03T17:42:35.280Z,20.00
2022-12-03T17:45:02.496Z,22.67
2022-12-03T17:47:29.717Z,37.67
2022-12-03T17:49:57.252Z,27.00
2022-12-03T17:52:24.652Z,33.00
2022-12-03T17:57:38.511Z,42.67
2022-12-03T18:00:06.157Z,40.33
2022-12-03T18:02:33.156Z,45.67
2022-12-03T18:05:00.110Z,33.33
2022-12-03T18:07:27.131Z,40.33
2022-12-03T18:09:54.279Z,34.33
2022-12-03T18:12:21.407Z,27.67
2022-12-03T18:14:48.328Z,41.33
2022-12-03T18:17:15.279Z,31.00
2022-12-03T18:19:42.269Z,31.00
2022-12-03T18:22:09.586Z,41.33
2022-12-03T18:24:36.658Z,35.67
2022-12-03T18:27:03.763Z,33.67
2022-12-03T18:29:30.754Z,43.00
2022-12-03T18:31:57.737Z,37.00
2022-12-03T18:35:18.271Z,30.00
2022-12-03T18:37:45.400Z,34.67
2022-12-03T18:40:22.823Z,19.67
2022-12-03T18:42:49.794Z,13.00
2022-12-03T18:45:17.073Z,15.33
2022-12-03T18:47:44.187Z,17.33
2022-12-03T18:50:12.412Z,16.00
2022-12-03T18:52:39.894Z,11.67
2022-12-03T18:55:07.853Z,22.00
2022-12-03T18:57:34.789Z,20.00
2022-12-03T19:00:01.790Z,20.00
2022-12-03T19:05:15.808Z,24.67
2022-12-03T19:07:43.535Z,26.00
2022-12-03T19:10:11.683Z,32.67
2022-12-03T19:12:39.156Z,34.67
2022-12-03T19:15:06.783Z,19.00
2022-12-03T19:17:33.837Z,30.00
2022-12-03T19:20:00.808Z,27.67
2022-12-03T19:22:27.762Z,38.33
2022-12-03T19:24:54.737Z,33.00
2022-12-03T19:27:21.741Z,33.67
2022-12-03T19:29:49.277Z,26.00
2022-12-03T19:32:16.355Z,27.67
2022-12-03T19:34:43.298Z,22.33
2022-12-03T19:37:10.258Z,15.67
2022-12-03T19:39:37.143Z,27.33
2022-12-03T19:42:04.481Z,31.00
2022-12-03T19:44:31.458Z,25.67
2022-12-03T19:46:58.634Z,17.33
2022-12-03T19:49:25.609Z,15.33
2022-12-03T19:51:52.696Z,16.00
2022-12-03T19:54:19.917Z,13.00
2022-12-03T19:56:47.103Z,24.33
2022-12-03T19:59:14.860Z,24.00
2022-12-03T20:01:43.534Z,29.33
2022-12-03T20:04:12.258Z,24.00
2022-12-03T20:06:40.044Z,24.67
2022-12-03T20:09:12.138Z,19.00
2022-12-03T20:11:40.777Z,30.00
2022-12-03T20:14:12.729Z,31.67
2022-12-03T20:16:39.743Z,39.33
2022-12-03T20:19:10.335Z,42.00
2022-12-03T20:21:38.189Z,39.00
2022-12-03T20:24:06.356Z,39.00
2022-12-03T20:26:33.812Z,53.33
2022-12-03T20:29:01.178Z,35.67
2022-12-03T20:31:31.610Z,38.67
2022-12-03T20:34:01.578Z,43.67
2022-12-03T20:36:30.395Z,54.33
2022-12-03T20:38:59.556Z,59.33
2022-12-03T20:41:27.298Z,20.00
2022-12-03T20:43:54.607Z,26.00
2022-12-03T20:46:27.790Z,27.00
2022-12-03T20:48:56.636Z,29.33
2022-12-03T20:51:28.348Z,17.67
2022-12-03T20:53:55.965Z,35.00
2022-12-03T20:56:32.004Z,44.00
2022-12-03T20:59:05.207Z,31.67
2022-12-03T21:01:32.940Z,30.00
2022-12-03T21:04:00.045Z,26.33
2022-12-03T21:06:30.179Z,32.33
2022-12-03T21:08:58.633Z,21.67
2022-12-03T21:11:29.974Z,27.00
2022-12-03T21:13:58.774Z,16.00
2022-12-03T21:17:06.473Z,14.33
2022-12-03T21:19:23.691Z,15.67
2022-12-03T21:21:50.836Z,17.33
2022-12-03T21:24:17.872Z,10.50
2022-12-03T21:26:44.908Z,20.33
2022-12-03T21:29:12.021Z,30.33
2022-12-03T21:31:40.216Z,31.00
2022-12-03T21:34:08.964Z,21.00
2022-12-03T21:36:36.209Z,24.00
2022-12-03T21:39:03.995Z,17.00
2022-12-03T21:41:31.144Z,19.00
2022-12-03T21:43:58.928Z,15.00
2022-12-03T21:47:10.568Z,13.67
2022-12-03T21:49:12.892Z,20.67
2022-12-03T21:51:39.753Z,27.00
2022-12-03T21:54:06.699Z,24.00
2022-12-03T21:56:33.643Z,41.00
2022-12-03T21:59:00.643Z,38.67
2022-12-03T22:01:27.826Z,35.67
2022-12-03T22:03:55.030Z,36.00
2022-12-03T22:06:22.555Z,34.33
2022-12-03T22:08:49.984Z,22.00
2022-12-03T22:11:20.097Z,34.00
2022-12-03T22:13:47.936Z,30.33
2022-12-03T22:16:17.975Z,30.00
2022-12-03T22:18:45.979Z,31.00
2022-12-03T22:21:16.331Z,20.00
2022-12-03T22:23:43.601Z,16.67
2022-12-03T22:26:16.289Z,16.33
2022-12-03T22:28:45.437Z,32.67
2022-12-03T22:31:14.272Z,23.67
2022-12-03T22:33:41.432Z,20.33
2022-12-03T22:36:17.999Z,23.33
2022-12-03T22:38:47.366Z,18.00
2022-12-03T22:41:16.023Z,16.33
2022-12-03T22:43:43.205Z,10.00
2022-12-03T22:46:12.883Z,9.00
2022-12-03T22:48:41.276Z,10.25
2022-12-03T22:51:17.537Z,11.75
2022-12-03T22:53:44.589Z,10.50
2022-12-03T22:56:11.940Z,21.00
2022-12-03T22:58:40.182Z,20.33
2022-12-03T23:01:08.025Z,14.67
2022-12-03T23:03:35.287Z,14.33
2022-12-03T23:06:10.054Z,20.67
2022-12-03T23:08:36.973Z,13.75
2022-12-03T23:11:03.857Z,17.67
2022-12-03T23:13:30.789Z,9.75
2022-12-03T23:15:57.770Z,9.00
2022-12-03T23:18:24.793Z,14.00
2022-12-03T23:20:54.717Z,20.33
2022-12-03T23:23:23.523Z,17.33
2022-12-03T23:26:06.312Z,11.75
2022-12-03T23:28:34.924Z,10.00
2022-12-03T23:31:02.055Z,9.00
2022-12-03T23:33:31.994Z,13.25
2022-12-03T23:36:06.175Z,9.00
2022-12-03T23:38:33.106Z,8.00
2022-12-03T23:41:07.994Z,19.67
2022-12-03T23:43:35.344Z,22.33
2022-12-03T23:46:07.373Z,23.33
2022-12-03T23:48:34.468Z,19.67
2022-12-03T23:51:12.307Z,22.00
2022-12-03T23:53:40.237Z,25.67
2022-12-03T23:56:08.475Z,20.67
2022-12-03T23:58:35.606Z,18.00
